Country
Station

 

Weather  for  Lappeenranta  -  Finland    Finland

  
0 °C (32 °F)
    
 
 

Current METAR for Lappeenranta is :

EFLP 191350Z AUTO 19006KT 140V240 1100 R06/P1500D R24/P1500N -SHRA OVC002 00/00 Q0995

 

This is a report for Lappeenranta - Finland.
 
The report was made 22 minutes ago, at 13:50 UTC .
The wind was blowing at a speed of 3.1 meters per second (6.9 miles per hour) from south (190°), varying between southeast (140°) and west/southwest (240°).
 
The temperature was 0 °C (32 °F)
The temperature felt like -4 °C (26 °F).
 
The atmospheric pressure was 995 hPa (29.38 inHg).
The sky was overcast from a height of 61 meter (200 feet)
 
The overall visibility was 1100 meter (3609 feet).
 
The visibility was 1500 meters (4921 feet) with a downward tendency for runway 06 and 1500 meters (4921 feet) with no distinct tendency for runway 24.
Currently showers of light rain.

 
 
 
 

Country :   A   B   C   D   E   F   G   H   I   J   K   L   M   N   O   P   Q   R   S   T   U   V   W   Y   Z

 

Site Info  |  Disclaimer  |  Credits  |  Privacy
Contact us  |  Add to favorites
© 2013-2019 METARs - All rights reserved